Details From KOAK - Metro Oakland Intl
To KSQL - San Carlos
Flight Number -
Tags generated
Created
Modified
Stats Distance 13 nm / 24 km
Max Altitude 0 ft / 0 m
Waypoints 3
Social Downloads 0
Likes 0
Share VATSIM

Download

Looking for another format? Having issues loading an existing format? Contact us
Advertisement - Login to hide

Notes

Basic altitude profile: - Ascent Rate: 2500ft/min - Ascent Speed: 250kts - Cruise Altitude: 5000ft - Cruise Speed: 420kts - Descent Rate: 1500ft/min - Descent Speed: 250kts Options: - Use NATs: yes - Use PACOTS: yes - Use low airways: yes - Use high airways: yes

Route

KOAK OAK KSQL

ID Type Via Altitude Latitude Longitude Leg Dist Tot Dist Heading (true) Name
O KOAK APT - 0 ft / 0 m 37.72482˚ -122.21952˚ - 0 nm - Metro Oakland Intl
OAK VOR - 0 ft / 0 m 37.72592˚ -122.22358˚ 0 nm 0 nm 289° / 289° OAKLAND VORTAC
O KSQL APT - 0 ft / 0 m 37.51173˚ -122.24939˚ 12 nm 13 nm 185° / 185° San Carlos

Altitude Profile

Advertisement - Login to hide

KOAK

Details ICAO KOAK (OAK)
Name Metro Oakland Intl
Region United States
Timezone America/Los_Angeles (UTC-8.0)
Stats Elevation 9 ft / 3 m (AMSL)
Location 37.724824° -122.219516°
Runways 4
Magnetic Variation 13.463° E

METAR

KOAK 142053Z 30008KT 10SM FEW200 16/08 A3009 RMK AO2 SLP190 T01560078 58014

Decode

TAF

KOAK 141728Z 1418/1524 00000KT P6SM FEW200 FM141900 25006KT P6SM FEW200 FM142100 31008KT P6SM FEW200 FM150200 VRB03KT P6SM SCT200 FM151900 25006KT P6SM FEW200 FM152100 31008KT P6SM FEW200

Decode

Departure Runways

ID Width Length Bearing (true) Bearing (mag) Surface Threshold Offset Overrun Length
09L 151 ft / 46 m 5,445 ft / 1,660 m 112.24° 98.78° Asphalt 0 ft / 0 m 0 ft / 0 m
09R 151 ft / 46 m 6,203 ft / 1,891 m 112.24° 98.78° Asphalt 0 ft / 0 m 0 ft / 0 m
11 151 ft / 46 m 9,996 ft / 3,047 m 130.11° 116.65° Asphalt 0 ft / 0 m 400 ft / 122 m
15 75 ft / 23 m 3,378 ft / 1,030 m 164.49° 151.03° Asphalt 0 ft / 0 m 0 ft / 0 m
27L 151 ft / 46 m 6,203 ft / 1,891 m 292.25° 278.79° Asphalt 0 ft / 0 m 112 ft / 34 m
27R 151 ft / 46 m 5,445 ft / 1,660 m 292.25° 278.79° Asphalt 0 ft / 0 m 0 ft / 0 m
29 151 ft / 46 m 9,996 ft / 3,047 m 310.13° 296.67° Asphalt 0 ft / 0 m 499 ft / 152 m
33 75 ft / 23 m 3,378 ft / 1,030 m 344.49° 331.03° Asphalt 0 ft / 0 m 0 ft / 0 m

KSQL

Details ICAO KSQL (SQL)
Name San Carlos
Region United States
Timezone America/Los_Angeles (UTC-8.0)
Stats Elevation 5 ft / 2 m (AMSL)
Location 37.511735° -122.249386°
Runways 1
Magnetic Variation 13.421° E

METAR

KSQL 142050Z 34005KT 8SM FEW200 16/09 A3009

Decode

TAF

Not found

Destination Runways

ID Width Length Bearing (true) Bearing (mag) Surface Threshold Offset Overrun Length
12 75 ft / 23 m 2,619 ft / 798 m 138.39° 124.97° Asphalt 0 ft / 0 m 299 ft / 91 m
30 75 ft / 23 m 2,619 ft / 798 m 318.40° 304.98° Asphalt 0 ft / 0 m 135 ft / 41 m